Flight Track Log - Related Links

Times and Time Zones

All times are in EDT time to prevent confusion due to time zone crossing. See the N449ND flight status page for this flight to view local times or setup timezone preferences in your user account.

Time Position Orientation Groundspeed Altitude Reporting Facility
EDT Latitude Longitude Course Direction KTS MPH feet Rate Location/Type
Thu 06:26:15 PM 27.3786 -80.7789 170° South 89 102 3,400  Level Miami Center
Thu 06:28:19 PM 27.4064 -80.7283 58° Northeast 95 109 3,100 -129 Descending Miami Center
Thu 06:29:21 PM 27.4147 -80.6981 73° East 97 112 3,000  Descending Miami Center
Thu 06:30:23 PM 27.4228 -80.6669 74° East 97 112 3,100 48 Climbing Miami Center
Thu 06:31:00 PM 27.4975 -80.3726 North  Level Estimated
Thu 06:31:25 PM 27.4300 -80.6369 75° East 97 112 3,100  Level Miami Center
Thu 06:32:00 PM 27.4975 -80.3726 170° South  Level Estimated
Thu 06:32:27 PM 27.4406 -80.6061 69° East 101 116 3,100  Level Miami Center
Thu 06:33:29 PM 27.4575 -80.5794 54° Northeast 101 116 3,100  Level Miami Center
Thu 06:34:30 PM 27.4725 -80.5525 58° Northeast 102 117 3,100  Level Miami Center
Thu 06:37:36 PM 27.5358 -80.4825 50° Northeast 104 120 3,100  Level Miami Center
Thu 06:38:38 PM 27.5636 -80.4703 21° North 106 122 3,100  Level Miami Center
Thu 06:39:40 PM 27.5650 -80.5028 273° West 107 123 3,100  Level Miami Center
Thu 06:41:44 PM 27.5803 -80.5631 50° Northeast 102 117 3,100  Level Miami Center
Thu 06:43:47 PM 27.6250 -80.6094 16° North 105 121 3,100  Level Miami Center
Thu 06:44:49 PM 27.6550 -80.6183 345° North 106 122 3,100  Level Miami Center
Thu 06:45:51 PM 27.6814 -80.6228 352° North 100 115 3,100  Level Miami Center
Thu 06:46:53 PM 27.7086 -80.6203 North 95 109 3,100 -49 Level Miami Center
Thu 06:47:54 PM 27.7347 -80.6197 North 95 109 3,000 -390 Descending Miami Center
Thu 06:48:56 PM 27.7247 -80.6342 232° Southwest 85 98 2,300 -532 Descending Miami Center
Thu 06:49:58 PM 27.7186 -80.6072 104° East 84 97 1,900 -341 Descending Miami Center
Thu 06:50:59 PM 27.7125 -80.5831 106° East 84 97 1,600 -146 Descending Miami Center
Thu 06:52:01 PM 27.7025 -80.5569 113° Southeast 84 97 1,600 -145 Level Miami Center
Thu 06:53:03 PM 27.6936 -80.5336 113° Southeast 82 94 1,300 -145 Descending Miami Center
Thu 06:54:05 PM 27.6842 -80.5075 112° Southeast 82 94 1,300 -49 Level Miami Center
Thu 06:55:06 PM 27.6758 -80.4825 111° Southeast 83 96 1,200 -259 Descending Miami Center
Thu 06:57:10 PM 27.6614 -80.4394 111° Southeast 75 86 500 -130 Descending Miami Center
Thu 06:58:11 PM 27.6536 -80.4153 110° East 75 86 800 439 Climbing Miami Center
Thu 06:59:13 PM 27.6514 -80.3903 96° East 75 86 1,400 581 Climbing Miami Center
Thu 07:00:15 PM 27.6481 -80.3650 98° East 82 94 2,000 537 Climbing Miami Center
Thu 07:01:16 PM 27.6417 -80.3406 106° East 82 94 2,500 488 Climbing Miami Center
Thu 07:02:18 PM 27.6375 -80.3122 99° East 84 97 3,000 290 Climbing Miami Center
Thu 07:03:20 PM 27.6167 -80.3122 180° South 102 117 3,100 49 Climbing Miami Center
Thu 07:04:21 PM 27.6122 -80.3428 261° West 101 116 3,100  Level Miami Center
Thu 07:05:23 PM 27.6075 -80.3733 260° West 99 114 3,100  Level Miami Center
Thu 07:07:26 PM 27.5975 -80.4383 260° West 100 115 3,100  Level Miami Center
Thu 07:08:28 PM 27.5931 -80.4700 261° West 100 115 3,100  Level Miami Center
Thu 07:09:30 PM 27.5878 -80.5000 259° West 99 114 3,100  Level Miami Center
Thu 07:10:32 PM 27.5831 -80.5297 260° West 99 114 3,100  Level Miami Center
Thu 07:11:33 PM 27.5769 -80.5614 258° West 98 113 3,100  Level Miami Center
Thu 07:13:37 PM 27.5650 -80.6214 90° East 96 110 3,100 -130 Level Miami Center
Thu 07:14:38 PM 27.5483 -80.6375 221° Southwest 98 113 2,700 -488 Descending Miami Center
Thu 07:15:40 PM 27.5236 -80.6344 174° South 88 101 2,100 -290 Descending Miami Center
Thu 07:16:42 PM 27.5106 -80.6122 124° Southeast 90 104 2,100  Level Miami Center
Thu 07:17:43 PM 27.5033 -80.5847 106° East 90 104 2,100  Level Miami Center
Thu 07:18:45 PM 27.4992 -80.5583 100° East 90 104 2,100 -97 Level Miami Center
Thu 07:19:47 PM 27.4989 -80.5314 91° East 84 97 1,900 -130 Descending Miami Center
Thu 07:21:50 PM 27.4986 -80.4747 90° East 85 98 1,700 -195 Descending Miami Center
Thu 07:22:52 PM 27.4981 -80.4533 92° East 77 89 1,300 -390 Descending Miami Center
Thu 07:23:53 PM 27.4978 -80.4275 91° East 77 89 900 -390 Descending Miami Center
Thu 07:24:55 PM 27.4978 -80.4017 90° East 78 90 500 -387 Descending Miami Center

Login

Don't have an account? Register now (free) for customized features, flight alerts, and more!